»·PEaware :: SKY623 KFHR-KORS

SKY623 :: KFHR-KORS

FLIGHT INFORMATION

Flight Status: Arrived
Operator:
Sky High Charters
More flights by this operator :: More flights under this callsign
Pilot: Tamer M. (30101)
Aircraft: SOCATA TBM-900
(TBM9)
More flights by this aircraft type
Origin: KFHR Friday Harbor
United States
Destination: KORS Orcas Island
United States
More flights between these airports :: More routes between these airports
Route: FHR APDON
File this flight plan on PilotEdge
Remarks: ODP
Altitude:
(Current/Filed)
5,000ft
Speed:
(Current/Filed)
200kts
Departed: 21-Aug-20 08:51 AM
Arrived: 21-Aug-20 09:13 AM
Distance/Time
Traveled:
12nm/0:22
Distance/Time
To Go:
Arrived

Flight Plot

Page will automatically refresh every two minutes.

Flight plan parsing failed; only flown route is shown


Map Options




Map Legend


Flown Route
Filed Route
Departure Airport
Arrival Airport
Navaid (VOR, NDB)
Fix

Horizontal Profiles

Position Reports

Time Latitude Longitude Heading Altitude Ground
Speed
21-Aug-20 08:22 48.525439 -123.026341 177 117ft 0kts
21-Aug-20 08:23 48.525439 -123.026341 177 117ft 0kts
21-Aug-20 08:24 48.525439 -123.026341 177 117ft 0kts
21-Aug-20 08:25 48.525439 -123.026341 177 117ft 0kts
21-Aug-20 08:26 48.525439 -123.026341 177 117ft 0kts
21-Aug-20 08:31 48.525440 -123.026344 177 117ft 0kts
21-Aug-20 08:32 48.525440 -123.026344 177 117ft 0kts
21-Aug-20 08:33 48.525440 -123.026344 177 117ft 0kts
21-Aug-20 08:34 48.525440 -123.026344 177 117ft 0kts
21-Aug-20 08:35 48.525440 -123.026344 177 117ft 0kts
21-Aug-20 08:36 48.525440 -123.026344 177 117ft 0kts
21-Aug-20 08:37 48.525440 -123.026344 177 117ft 0kts
21-Aug-20 08:38 48.525440 -123.026344 177 117ft 0kts
21-Aug-20 08:39 48.525440 -123.026344 177 117ft 0kts
21-Aug-20 08:40 48.525440 -123.026344 177 117ft 0kts
21-Aug-20 08:41 48.525440 -123.026344 177 117ft 0kts
21-Aug-20 08:42 48.525440 -123.026344 177 117ft 0kts
21-Aug-20 08:43 48.525440 -123.026344 177 117ft 0kts
21-Aug-20 08:44 48.524983 -123.025870 173 113ft 5kts
21-Aug-20 08:46 48.525650 -123.025247 356 112ft 4kts
21-Aug-20 08:47 48.526375 -123.025306 357 115ft 0kts
21-Aug-20 08:48 48.526375 -123.025306 357 115ft 0kts
21-Aug-20 08:49 48.526375 -123.025306 357 115ft 0kts
21-Aug-20 08:50 48.526268 -123.024702 177 112ft 6kts
21-Aug-20 08:51 48.505580 -123.021781 157 882ft 95kts
21-Aug-20 08:52 48.491889 -122.991665 54 2096ft 136kts
21-Aug-20 08:53 48.516504 -123.014603 261 3063ft 153kts
21-Aug-20 08:54 48.562303 -123.025150 27 2417ft 198kts
21-Aug-20 08:55 48.602481 -122.976736 45 2505ft 198kts
21-Aug-20 08:56 48.643961 -122.917466 35 3310ft 199kts
21-Aug-20 08:57 48.688907 -122.869160 42 4402ft 206kts
21-Aug-20 08:58 48.737710 -122.833347 17 5146ft 191kts
21-Aug-20 08:59 48.791576 -122.809664 20 5018ft 202kts
21-Aug-20 09:00 48.844727 -122.781704 22 5137ft 199kts
21-Aug-20 09:01 48.897862 -122.750204 22 4975ft 204kts
21-Aug-20 09:02 48.951571 -122.745809 343 4994ft 198kts
21-Aug-20 09:02 48.992557 -122.735863 68 4352ft 179kts
21-Aug-20 09:04 48.962989 -122.693530 204 3304ft 170kts
21-Aug-20 09:05 48.921824 -122.730961 207 2358ft 173kts
21-Aug-20 09:06 48.889305 -122.768446 206 1720ft 126kts
21-Aug-20 09:06 48.859944 -122.785001 199 2821ft 113kts
21-Aug-20 09:07 48.831334 -122.812565 209 1883ft 112kts
21-Aug-20 09:08 48.804557 -122.837000 203 1171ft 118kts
21-Aug-20 09:09 48.778141 -122.869215 190 895ft 114kts
21-Aug-20 09:10 48.747587 -122.890164 205 924ft 116kts
21-Aug-20 09:11 48.722327 -122.910258 186 337ft 95kts
21-Aug-20 09:12 48.705858 -122.910617 180 34ft 11kts
21-Aug-20 09:13 48.704469 -122.911899 299 41ft 0kts
21-Aug-20 09:14 48.704469 -122.911899 299 41ft 0kts
21-Aug-20 09:15 48.709675 -122.909430 230 24ft 0kts
21-Aug-20 09:16 48.709675 -122.909430 230 24ft 0kts
21-Aug-20 09:17 48.709675 -122.909430 230 24ft 0kts
21-Aug-20 09:18 48.709675 -122.909430 230 24ft 0kts
21-Aug-20 09:19 48.709675 -122.909430 230 24ft 0kts
21-Aug-20 09:20 48.709675 -122.909430 230 24ft 0kts

Navigation Log

Ident Type
Flight plan parsing failed, navigation log unavailable